sensor_id;sensor_type;location;lat;lon;timestamp;pressure;altitude;pressure_sealevel;temperature;humidity
3082;BME280;1551;51.046;7.010;2023-02-11T00:02:35;102811.13;;;8.35;nan
3082;BME280;1551;51.046;7.010;2023-02-11T00:05:25;102810.34;;;8.38;nan
3082;BME280;1551;51.046;7.010;2023-02-11T00:08:14;102808.56;;;8.35;nan
3082;BME280;1551;51.046;7.010;2023-02-11T00:11:05;102809.25;;;8.29;nan
3082;BME280;1551;51.046;7.010;2023-02-11T00:13:55;102803.97;;;8.25;nan
3082;BME280;1551;51.046;7.010;2023-02-11T00:16:45;102802.03;;;8.18;nan
3082;BME280;1551;51.046;7.010;2023-02-11T00:19:33;102800.28;;;8.17;nan
3082;BME280;1551;51.046;7.010;2023-02-11T00:22:22;102800.09;;;8.11;nan
3082;BME280;1551;51.046;7.010;2023-02-11T00:25:12;102794.03;;;8.09;nan
3082;BME280;1551;51.046;7.010;2023-02-11T00:28:01;102781.06;;;8.01;nan
3082;BME280;1551;51.046;7.010;2023-02-11T00:30:55;102785.28;;;8.01;nan
3082;BME280;1551;51.046;7.010;2023-02-11T00:33:44;102787.09;;;8.05;nan
3082;BME280;1551;51.046;7.010;2023-02-11T00:36:33;102792.38;;;8.09;nan
3082;BME280;1551;51.046;7.010;2023-02-11T00:39:22;102776.31;;;8.12;nan
3082;BME280;1551;51.046;7.010;2023-02-11T00:42:13;102786.75;;;8.19;nan
3082;BME280;1551;51.046;7.010;2023-02-11T00:45:03;102779.84;;;8.15;nan
3082;BME280;1551;51.046;7.010;2023-02-11T00:47:52;102772.19;;;8.15;nan
3082;BME280;1551;51.046;7.010;2023-02-11T00:50:42;102767.84;;;8.13;nan
3082;BME280;1551;51.046;7.010;2023-02-11T00:53:31;102766.97;;;8.12;nan
3082;BME280;1551;51.046;7.010;2023-02-11T00:56:20;102777.28;;;8.15;nan
3082;BME280;1551;51.046;7.010;2023-02-11T00:59:09;102767.84;;;8.13;nan
3082;BME280;1551;51.046;7.010;2023-02-11T01:01:58;102766.06;;;8.10;nan
3082;BME280;1551;51.046;7.010;2023-02-11T01:04:47;102766.84;;;8.09;nan
3082;BME280;1551;51.046;7.010;2023-02-11T01:07:36;102777.91;;;8.08;nan
3082;BME280;1551;51.046;7.010;2023-02-11T01:10:26;102779.56;;;8.08;nan
3082;BME280;1551;51.046;7.010;2023-02-11T01:13:16;102777.75;;;8.04;nan
3082;BME280;1551;51.046;7.010;2023-02-11T01:16:05;102778.69;;;8.07;nan
3082;BME280;1551;51.046;7.010;2023-02-11T01:18:55;102777.06;;;8.09;nan
3082;BME280;1551;51.046;7.010;2023-02-11T01:21:44;102769.38;;;8.08;nan
3082;BME280;1551;51.046;7.010;2023-02-11T01:24:33;102763.13;;;8.00;nan
3082;BME280;1551;51.046;7.010;2023-02-11T01:27:22;102769.00;;;7.97;nan
3082;BME280;1551;51.046;7.010;2023-02-11T01:30:12;102770.59;;;7.94;nan
3082;BME280;1551;51.046;7.010;2023-02-11T01:33:01;102767.00;;;7.89;nan
3082;BME280;1551;51.046;7.010;2023-02-11T01:35:52;102772.97;;;7.89;nan
3082;BME280;1551;51.046;7.010;2023-02-11T01:38:41;102777.25;;;7.90;nan
3082;BME280;1551;51.046;7.010;2023-02-11T01:41:31;102781.50;;;7.90;nan
3082;BME280;1551;51.046;7.010;2023-02-11T01:44:32;102785.72;;;7.89;nan
3082;BME280;1551;51.046;7.010;2023-02-11T01:47:22;102799.19;;;7.85;nan
3082;BME280;1551;51.046;7.010;2023-02-11T01:50:11;102799.34;;;7.90;nan
3082;BME280;1551;51.046;7.010;2023-02-11T01:53:00;102789.03;;;7.87;nan
3082;BME280;1551;51.046;7.010;2023-02-11T01:56:10;102785.41;;;7.80;nan
3082;BME280;1551;51.046;7.010;2023-02-11T01:59:44;102773.31;;;7.75;nan
3082;BME280;1551;51.046;7.010;2023-02-11T02:02:42;102781.59;;;7.69;nan
3082;BME280;1551;51.046;7.010;2023-02-11T02:08:39;102778.66;;;7.57;nan
3082;BME280;1551;51.046;7.010;2023-02-11T02:11:30;102772.56;;;7.53;nan
3082;BME280;1551;51.046;7.010;2023-02-11T02:14:19;102768.31;;;7.52;nan
3082;BME280;1551;51.046;7.010;2023-02-11T02:17:27;102782.72;;;7.52;nan
3082;BME280;1551;51.046;7.010;2023-02-11T02:20:36;102793.88;;;7.55;nan
3082;BME280;1551;51.046;7.010;2023-02-11T02:23:48;102791.47;;;7.60;nan
3082;BME280;1551;51.046;7.010;2023-02-11T02:41:41;102760.09;;;7.37;nan
3082;BME280;1551;51.046;7.010;2023-02-11T02:44:32;102741.00;;;7.26;nan
3082;BME280;1551;51.046;7.010;2023-02-11T02:47:21;102745.06;;;7.21;nan
3082;BME280;1551;51.046;7.010;2023-02-11T02:50:13;102751.13;;;7.25;nan
3082;BME280;1551;51.046;7.010;2023-02-11T02:56:13;102735.09;;;7.27;nan
3082;BME280;1551;51.046;7.010;2023-02-11T03:02:28;102717.81;;;7.42;nan
3082;BME280;1551;51.046;7.010;2023-02-11T03:08:54;102721.41;;;7.47;nan
3082;BME280;1551;51.046;7.010;2023-02-11T03:11:44;102719.81;;;7.51;nan
3082;BME280;1551;51.046;7.010;2023-02-11T03:14:34;102734.31;;;7.52;nan
3082;BME280;1551;51.046;7.010;2023-02-11T03:17:24;102725.97;;;7.57;nan
3082;BME280;1551;51.046;7.010;2023-02-11T03:20:16;102727.72;;;7.58;nan
3082;BME280;1551;51.046;7.010;2023-02-11T03:23:12;102741.66;;;7.68;nan
3082;BME280;1551;51.046;7.010;2023-02-11T03:26:10;102738.13;;;7.64;nan
3082;BME280;1551;51.046;7.010;2023-02-11T03:32:25;102731.72;;;7.76;nan
3082;BME280;1551;51.046;7.010;2023-02-11T03:35:28;102730.91;;;7.77;nan
3082;BME280;1551;51.046;7.010;2023-02-11T03:38:28;102715.25;;;7.66;nan
3082;BME280;1551;51.046;7.010;2023-02-11T03:41:22;102699.97;;;7.66;nan
3082;BME280;1551;51.046;7.010;2023-02-11T03:44:13;102695.91;;;7.71;nan
3082;BME280;1551;51.046;7.010;2023-02-11T03:47:06;102701.19;;;7.77;nan
3082;BME280;1551;51.046;7.010;2023-02-11T03:49:58;102713.06;;;7.77;nan
3082;BME280;1551;51.046;7.010;2023-02-11T03:52:48;102721.88;;;7.86;nan
3082;BME280;1551;51.046;7.010;2023-02-11T03:55:39;102723.56;;;7.86;nan
3082;BME280;1551;51.046;7.010;2023-02-11T03:58:29;102722.88;;;7.90;nan
3082;BME280;1551;51.046;7.010;2023-02-11T04:01:18;102732.19;;;7.89;nan
3082;BME280;1551;51.046;7.010;2023-02-11T04:04:07;102732.91;;;7.85;nan
3082;BME280;1551;51.046;7.010;2023-02-11T04:06:56;102737.34;;;7.91;nan
3082;BME280;1551;51.046;7.010;2023-02-11T04:09:46;102740.91;;;7.96;nan
3082;BME280;1551;51.046;7.010;2023-02-11T04:12:35;102734.06;;;7.95;nan
3082;BME280;1551;51.046;7.010;2023-02-11T04:15:24;102721.91;;;7.88;nan
3082;BME280;1551;51.046;7.010;2023-02-11T04:18:13;102715.56;;;7.75;nan
3082;BME280;1551;51.046;7.010;2023-02-11T04:21:02;102714.88;;;7.81;nan
3082;BME280;1551;51.046;7.010;2023-02-11T04:23:51;102710.75;;;7.83;nan
3082;BME280;1551;51.046;7.010;2023-02-11T04:26:40;102707.03;;;7.75;nan
3082;BME280;1551;51.046;7.010;2023-02-11T04:29:29;102701.84;;;7.72;nan
3082;BME280;1551;51.046;7.010;2023-02-11T04:32:18;102696.50;;;7.64;nan
3082;BME280;1551;51.046;7.010;2023-02-11T04:35:07;102701.81;;;7.70;nan
3082;BME280;1551;51.046;7.010;2023-02-11T04:37:56;102700.94;;;7.70;nan
3082;BME280;1551;51.046;7.010;2023-02-11T04:40:45;102703.63;;;7.74;nan
3082;BME280;1551;51.046;7.010;2023-02-11T04:43:34;102700.22;;;7.74;nan
3082;BME280;1551;51.046;7.010;2023-02-11T04:46:23;102700.53;;;7.83;nan
3082;BME280;1551;51.046;7.010;2023-02-11T04:49:13;102693.94;;;7.89;nan
3082;BME280;1551;51.046;7.010;2023-02-11T04:52:03;102669.38;;;7.66;nan
3082;BME280;1551;51.046;7.010;2023-02-11T04:54:53;102702.06;;;7.78;nan
3082;BME280;1551;51.046;7.010;2023-02-11T04:57:41;102694.44;;;7.79;nan
3082;BME280;1551;51.046;7.010;2023-02-11T05:00:30;102690.28;;;7.81;nan
3082;BME280;1551;51.046;7.010;2023-02-11T05:03:20;102692.97;;;7.86;nan
3082;BME280;1551;51.046;7.010;2023-02-11T05:06:09;102706.53;;;7.85;nan
3082;BME280;1551;51.046;7.010;2023-02-11T05:08:59;102705.94;;;7.92;nan
3082;BME280;1551;51.046;7.010;2023-02-11T05:11:48;102704.28;;;7.94;nan
3082;BME280;1551;51.046;7.010;2023-02-11T05:14:37;102704.50;;;8.00;nan
3082;BME280;1551;51.046;7.010;2023-02-11T05:17:26;102704.50;;;8.00;nan
3082;BME280;1551;51.046;7.010;2023-02-11T05:20:15;102703.44;;;7.93;nan
3082;BME280;1551;51.046;7.010;2023-02-11T05:23:04;102700.97;;;7.96;nan
3082;BME280;1551;51.046;7.010;2023-02-11T05:25:53;102711.47;;;8.05;nan
3082;BME280;1551;51.046;7.010;2023-02-11T05:28:43;102703.06;;;8.08;nan
3082;BME280;1551;51.046;7.010;2023-02-11T05:31:32;102696.16;;;8.04;nan
3082;BME280;1551;51.046;7.010;2023-02-11T05:34:21;102693.81;;;8.11;nan
3082;BME280;1551;51.046;7.010;2023-02-11T05:37:10;102695.59;;;8.14;nan
3082;BME280;1551;51.046;7.010;2023-02-11T05:39:58;102693.00;;;8.12;nan
3082;BME280;1551;51.046;7.010;2023-02-11T05:42:48;102694.69;;;8.12;nan
3082;BME280;1551;51.046;7.010;2023-02-11T05:45:36;102699.94;;;8.16;nan
3082;BME280;1551;51.046;7.010;2023-02-11T05:48:25;102700.47;;;8.06;nan
3082;BME280;1551;51.046;7.010;2023-02-11T05:51:14;102697.13;;;8.09;nan
3082;BME280;1551;51.046;7.010;2023-02-11T05:54:04;102692.25;;;8.15;nan
3082;BME280;1551;51.046;7.010;2023-02-11T05:56:52;102685.41;;;8.14;nan
3082;BME280;1551;51.046;7.010;2023-02-11T05:59:41;102684.56;;;8.13;nan
3082;BME280;1551;51.046;7.010;2023-02-11T06:02:30;102673.56;;;8.16;nan
3082;BME280;1551;51.046;7.010;2023-02-11T06:05:19;102680.28;;;8.14;nan
3082;BME280;1551;51.046;7.010;2023-02-11T06:08:08;102672.44;;;8.06;nan
3082;BME280;1551;51.046;7.010;2023-02-11T06:10:57;102672.25;;;8.02;nan
3082;BME280;1551;51.046;7.010;2023-02-11T06:13:46;102665.31;;;7.98;nan
3082;BME280;1551;51.046;7.010;2023-02-11T06:16:36;102669.81;;;8.05;nan
3082;BME280;1551;51.046;7.010;2023-02-11T06:19:26;102670.97;;;8.14;nan
3082;BME280;1551;51.046;7.010;2023-02-11T06:22:15;102681.28;;;8.17;nan
3082;BME280;1551;51.046;7.010;2023-02-11T06:25:04;102679.59;;;8.18;nan
3082;BME280;1551;51.046;7.010;2023-02-11T06:27:53;102680.28;;;8.14;nan
3082;BME280;1551;51.046;7.010;2023-02-11T06:30:42;102681.16;;;8.14;nan
3082;BME280;1551;51.046;7.010;2023-02-11T06:33:33;102675.88;;;8.08;nan
3082;BME280;1551;51.046;7.010;2023-02-11T06:36:22;102678.31;;;8.05;nan
3082;BME280;1551;51.046;7.010;2023-02-11T06:39:12;102665.44;;;8.01;nan
3082;BME280;1551;51.046;7.010;2023-02-11T06:42:01;102678.59;;;8.13;nan
3082;BME280;1551;51.046;7.010;2023-02-11T06:44:50;102676.59;;;8.04;nan
3082;BME280;1551;51.046;7.010;2023-02-11T06:47:39;102691.84;;;8.03;nan
3082;BME280;1551;51.046;7.010;2023-02-11T06:50:29;102689.41;;;8.06;nan
3082;BME280;1551;51.046;7.010;2023-02-11T06:53:17;102701.44;;;8.10;nan
3082;BME280;1551;51.046;7.010;2023-02-11T06:56:09;102696.28;;;8.08;nan
3082;BME280;1551;51.046;7.010;2023-02-11T06:58:58;102704.16;;;8.16;nan
3082;BME280;1551;51.046;7.010;2023-02-11T07:01:47;102705.03;;;8.16;nan
3082;BME280;1551;51.046;7.010;2023-02-11T07:04:36;102707.25;;;8.06;nan
3082;BME280;1551;51.046;7.010;2023-02-11T07:07:26;102706.19;;;7.99;nan
3082;BME280;1551;51.046;7.010;2023-02-11T07:10:15;102700.84;;;7.92;nan
3082;BME280;1551;51.046;7.010;2023-02-11T07:13:04;102703.25;;;7.87;nan
3082;BME280;1551;51.046;7.010;2023-02-11T07:15:53;102702.31;;;7.85;nan
3082;BME280;1551;51.046;7.010;2023-02-11T07:18:43;102705.78;;;7.87;nan
3082;BME280;1551;51.046;7.010;2023-02-11T07:21:31;102706.81;;;7.92;nan
3082;BME280;1551;51.046;7.010;2023-02-11T07:24:20;102710.59;;;7.78;nan
3082;BME280;1551;51.046;7.010;2023-02-11T07:27:11;102711.88;;;7.67;nan
3082;BME280;1551;51.046;7.010;2023-02-11T07:30:00;102719.00;;;7.76;nan
3082;BME280;1551;51.046;7.010;2023-02-11T07:32:49;102726.06;;;7.84;nan
3082;BME280;1551;51.046;7.010;2023-02-11T07:35:38;102726.78;;;7.80;nan
3082;BME280;1551;51.046;7.010;2023-02-11T07:38:27;102723.22;;;7.75;nan
3082;BME280;1551;51.046;7.010;2023-02-11T07:41:21;102730.13;;;7.79;nan
3082;BME280;1551;51.046;7.010;2023-02-11T07:44:11;102732.50;;;7.73;nan
3082;BME280;1551;51.046;7.010;2023-02-11T07:47:00;102723.25;;;7.77;nan
3082;BME280;1551;51.046;7.010;2023-02-11T07:49:49;102733.53;;;7.78;nan
3082;BME280;1551;51.046;7.010;2023-02-11T07:52:38;102737.03;;;7.82;nan
3082;BME280;1551;51.046;7.010;2023-02-11T07:55:27;102734.59;;;7.85;nan
3082;BME280;1551;51.046;7.010;2023-02-11T07:58:16;102740.59;;;7.87;nan
3082;BME280;1551;51.046;7.010;2023-02-11T08:01:09;102738.06;;;7.87;nan
3082;BME280;1551;51.046;7.010;2023-02-11T08:04:00;102746.50;;;7.86;nan
3082;BME280;1551;51.046;7.010;2023-02-11T08:06:49;102758.34;;;7.84;nan
3082;BME280;1551;51.046;7.010;2023-02-11T08:09:40;102748.44;;;7.93;nan
3082;BME280;1551;51.046;7.010;2023-02-11T08:12:29;102748.41;;;7.91;nan
3082;BME280;1551;51.046;7.010;2023-02-11T08:15:18;102752.59;;;7.89;nan
3082;BME280;1551;51.046;7.010;2023-02-11T08:18:07;102749.47;;;7.73;nan
3082;BME280;1551;51.046;7.010;2023-02-11T08:21:03;102744.56;;;7.79;nan
3082;BME280;1551;51.046;7.010;2023-02-11T08:23:52;102744.69;;;7.82;nan
3082;BME280;1551;51.046;7.010;2023-02-11T08:26:42;102743.03;;;7.84;nan
3082;BME280;1551;51.046;7.010;2023-02-11T08:29:31;102740.38;;;7.81;nan
3082;BME280;1551;51.046;7.010;2023-02-11T08:32:20;102744.72;;;7.83;nan
3082;BME280;1551;51.046;7.010;2023-02-11T08:35:10;102751.25;;;7.75;nan
3082;BME280;1551;51.046;7.010;2023-02-11T08:38:00;102757.47;;;7.83;nan
3082;BME280;1551;51.046;7.010;2023-02-11T08:40:49;102752.63;;;7.91;nan
3082;BME280;1551;51.046;7.010;2023-02-11T08:43:38;102755.34;;;7.95;nan
3082;BME280;1551;51.046;7.010;2023-02-11T08:46:30;102758.66;;;7.93;nan
3082;BME280;1551;51.046;7.010;2023-02-11T08:49:19;102758.94;;;8.02;nan
3082;BME280;1551;51.046;7.010;2023-02-11T08:52:09;102765.66;;;7.98;nan
3082;BME280;1551;51.046;7.010;2023-02-11T08:54:58;102762.28;;;7.99;nan
3082;BME280;1551;51.046;7.010;2023-02-11T08:57:47;102769.16;;;8.02;nan
3082;BME280;1551;51.046;7.010;2023-02-11T09:00:36;102782.84;;;8.04;nan
3082;BME280;1551;51.046;7.010;2023-02-11T09:03:25;102785.16;;;7.98;nan
3082;BME280;1551;51.046;7.010;2023-02-11T09:06:14;102795.00;;;8.11;nan
3082;BME280;1551;51.046;7.010;2023-02-11T09:09:05;102788.25;;;8.13;nan
3082;BME280;1551;51.046;7.010;2023-02-11T09:11:55;102798.72;;;8.20;nan
3082;BME280;1551;51.046;7.010;2023-02-11T09:14:45;102797.00;;;8.21;nan
3082;BME280;1551;51.046;7.010;2023-02-11T09:17:34;102797.88;;;8.21;nan
3082;BME280;1551;51.046;7.010;2023-02-11T09:20:23;102801.00;;;8.13;nan
3082;BME280;1551;51.046;7.010;2023-02-11T09:23:14;102800.84;;;8.08;nan
3082;BME280;1551;51.046;7.010;2023-02-11T09:26:08;102798.44;;;8.13;nan
3082;BME280;1551;51.046;7.010;2023-02-11T09:28:57;102808.97;;;8.22;nan
3082;BME280;1551;51.046;7.010;2023-02-11T09:31:47;102800.53;;;8.24;nan
3082;BME280;1551;51.046;7.010;2023-02-11T09:34:36;102802.41;;;8.28;nan
3082;BME280;1551;51.046;7.010;2023-02-11T09:37:25;102806.78;;;8.32;nan
3082;BME280;1551;51.046;7.010;2023-02-11T09:40:15;102804.38;;;8.37;nan
3082;BME280;1551;51.046;7.010;2023-02-11T09:43:10;102806.13;;;8.38;nan
3082;BME280;1551;51.046;7.010;2023-02-11T09:46:04;102810.50;;;8.42;nan
3082;BME280;1551;51.046;7.010;2023-02-11T09:48:54;102812.16;;;8.40;nan
3082;BME280;1551;51.046;7.010;2023-02-11T09:51:48;102813.78;;;8.38;nan
3082;BME280;1551;51.046;7.010;2023-02-11T09:54:56;102822.66;;;8.49;nan
3082;BME280;1551;51.046;7.010;2023-02-11T09:57:46;102823.25;;;8.42;nan
3082;BME280;1551;51.046;7.010;2023-02-11T10:06:42;102833.38;;;8.64;nan
3082;BME280;1551;51.046;7.010;2023-02-11T10:10:00;102837.00;;;8.46;nan
3082;BME280;1551;51.046;7.010;2023-02-11T10:13:43;102840.47;;;8.48;nan
3082;BME280;1551;51.046;7.010;2023-02-11T10:22:43;102847.41;;;8.52;nan
3082;BME280;1551;51.046;7.010;2023-02-11T10:25:40;102845.72;;;8.52;nan
3082;BME280;1551;51.046;7.010;2023-02-11T10:28:32;102843.06;;;8.49;nan
3082;BME280;1551;51.046;7.010;2023-02-11T10:31:24;102840.78;;;8.57;nan
3082;BME280;1551;51.046;7.010;2023-02-11T10:34:15;102834.72;;;8.53;nan
3082;BME280;1551;51.046;7.010;2023-02-11T10:37:04;102840.78;;;8.57;nan
3082;BME280;1551;51.046;7.010;2023-02-11T10:39:55;102842.81;;;8.67;nan
3082;BME280;1551;51.046;7.010;2023-02-11T10:42:48;102850.53;;;8.70;nan
3082;BME280;1551;51.046;7.010;2023-02-11T10:45:42;102846.38;;;8.72;nan
3082;BME280;1551;51.046;7.010;2023-02-11T10:48:46;102858.78;;;8.61;nan
3082;BME280;1551;51.046;7.010;2023-02-11T10:51:40;102852.75;;;8.59;nan
3082;BME280;1551;51.046;7.010;2023-02-11T10:54:29;102844.19;;;8.57;nan
3082;BME280;1551;51.046;7.010;2023-02-11T10:57:18;102848.88;;;8.70;nan
3082;BME280;1551;51.046;7.010;2023-02-11T11:03:19;102848.31;;;8.79;nan
3082;BME280;1551;51.046;7.010;2023-02-11T11:06:08;102847.53;;;8.81;nan
3082;BME280;1551;51.046;7.010;2023-02-11T11:08:57;102854.31;;;8.81;nan
3082;BME280;1551;51.046;7.010;2023-02-11T11:11:51;102849.22;;;8.81;nan
3082;BME280;1551;51.046;7.010;2023-02-11T11:14:56;102850.72;;;8.74;nan
3082;BME280;1551;51.046;7.010;2023-02-11T11:17:45;102842.97;;;8.71;nan
3082;BME280;1551;51.046;7.010;2023-02-11T11:20:35;102849.63;;;8.68;nan
3082;BME280;1551;51.046;7.010;2023-02-11T11:23:27;102845.78;;;8.80;nan
3082;BME280;1551;51.046;7.010;2023-02-11T11:26:18;102846.75;;;8.84;nan
3082;BME280;1551;51.046;7.010;2023-02-11T11:29:15;102838.66;;;8.97;nan
3082;BME280;1551;51.046;7.010;2023-02-11T11:32:12;102828.47;;;8.98;nan
3082;BME280;1551;51.046;7.010;2023-02-11T11:35:16;102835.47;;;9.04;nan
3082;BME280;1551;51.046;7.010;2023-02-11T11:38:13;102836.34;;;9.05;nan
3082;BME280;1551;51.046;7.010;2023-02-11T11:41:17;102843.91;;;9.02;nan
3082;BME280;1551;51.046;7.010;2023-02-11T11:44:37;102849.50;;;8.90;nan
3082;BME280;1551;51.046;7.010;2023-02-11T11:51:09;102836.59;;;8.85;nan
3082;BME280;1551;51.046;7.010;2023-02-11T11:54:11;102837.53;;;8.89;nan
3082;BME280;1551;51.046;7.010;2023-02-11T11:57:10;102832.50;;;8.90;nan
3082;BME280;1551;51.046;7.010;2023-02-11T12:00:01;102828.16;;;8.88;nan
3082;BME280;1551;51.046;7.010;2023-02-11T12:18:31;102825.47;;;8.83;nan
3082;BME280;1551;51.046;7.010;2023-02-11T12:28:20;102834.47;;;8.99;nan
3082;BME280;1551;51.046;7.010;2023-02-11T12:34:56;102833.44;;;8.94;nan
3082;BME280;1551;51.046;7.010;2023-02-11T12:41:03;102836.38;;;9.06;nan
3082;BME280;1551;51.046;7.010;2023-02-11T12:43:58;102826.28;;;9.09;nan
3082;BME280;1551;51.046;7.010;2023-02-11T12:46:59;102832.31;;;9.13;nan
3082;BME280;1551;51.046;7.010;2023-02-11T12:53:12;102825.03;;;9.25;nan
3082;BME280;1551;51.046;7.010;2023-02-11T12:56:15;102830.00;;;9.20;nan
3082;BME280;1551;51.046;7.010;2023-02-11T12:59:13;102816.09;;;9.11;nan
3082;BME280;1551;51.046;7.010;2023-02-11T13:02:15;102821.22;;;9.12;nan
3082;BME280;1551;51.046;7.010;2023-02-11T13:05:22;102817.25;;;9.22;nan
3082;BME280;1551;51.046;7.010;2023-02-11T13:08:29;102820.72;;;9.24;nan
3082;BME280;1551;51.046;7.010;2023-02-11T13:11:29;102818.91;;;9.20;nan
3082;BME280;1551;51.046;7.010;2023-02-11T13:14:26;102820.53;;;9.16;nan
3082;BME280;1551;51.046;7.010;2023-02-11T13:17:23;102818.78;;;9.15;nan
3082;BME280;1551;51.046;7.010;2023-02-11T13:20:42;102818.00;;;9.18;nan
3082;BME280;1551;51.046;7.010;2023-02-11T13:26:34;102814.03;;;9.27;nan
3082;BME280;1551;51.046;7.010;2023-02-11T13:29:48;102807.75;;;9.16;nan
3082;BME280;1551;51.046;7.010;2023-02-11T13:35:47;102801.25;;;8.99;nan
3082;BME280;1551;51.046;7.010;2023-02-11T13:38:37;102811.97;;;9.14;nan
3082;BME280;1551;51.046;7.010;2023-02-11T13:41:39;102820.78;;;9.25;nan
3082;BME280;1551;51.046;7.010;2023-02-11T13:44:32;102825.25;;;9.32;nan
3082;BME280;1551;51.046;7.010;2023-02-11T13:47:28;102820.41;;;9.41;nan
3082;BME280;1551;51.046;7.010;2023-02-11T13:50:23;102813.28;;;9.31;nan
3082;BME280;1551;51.046;7.010;2023-02-11T13:53:13;102814.94;;;9.29;nan
3082;BME280;1551;51.046;7.010;2023-02-11T13:57:14;102807.31;;;9.31;nan
3082;BME280;1551;51.046;7.010;2023-02-11T14:02:34;102808.19;;;9.31;nan
3082;BME280;1551;51.046;7.010;2023-02-11T14:12:23;102815.19;;;9.38;nan
3082;BME280;1551;51.046;7.010;2023-02-11T14:15:18;102814.34;;;9.38;nan
3082;BME280;1551;51.046;7.010;2023-02-11T14:21:32;102808.53;;;9.43;nan
3082;BME280;1551;51.046;7.010;2023-02-11T14:27:20;102797.63;;;9.49;nan
3082;BME280;1551;51.046;7.010;2023-02-11T14:30:35;102808.97;;;9.58;nan
3082;BME280;1551;51.046;7.010;2023-02-11T14:36:57;102818.25;;;9.55;nan
3082;BME280;1551;51.046;7.010;2023-02-11T14:40:15;102816.56;;;9.55;nan
3082;BME280;1551;51.046;7.010;2023-02-11T14:43:12;102811.41;;;9.54;nan
3082;BME280;1551;51.046;7.010;2023-02-11T14:46:01;102821.66;;;9.54;nan
3082;BME280;1551;51.046;7.010;2023-02-11T14:48:53;102819.94;;;9.54;nan
3082;BME280;1551;51.046;7.010;2023-02-11T14:51:43;102816.72;;;9.61;nan
3082;BME280;1551;51.046;7.010;2023-02-11T14:54:32;102815.94;;;9.64;nan
3082;BME280;1551;51.046;7.010;2023-02-11T14:57:21;102822.56;;;9.57;nan
3082;BME280;1551;51.046;7.010;2023-02-11T15:00:16;102834.69;;;9.63;nan
3082;BME280;1551;51.046;7.010;2023-02-11T15:03:06;102828.00;;;9.68;nan
3082;BME280;1551;51.046;7.010;2023-02-11T15:06:00;102827.94;;;9.66;nan
3082;BME280;1551;51.046;7.010;2023-02-11T15:08:52;102825.44;;;9.68;nan
3082;BME280;1551;51.046;7.010;2023-02-11T15:11:45;102820.53;;;9.76;nan
3082;BME280;1551;51.046;7.010;2023-02-11T15:14:35;102826.47;;;9.75;nan
3082;BME280;1551;51.046;7.010;2023-02-11T15:17:27;102821.25;;;9.70;nan
3082;BME280;1551;51.046;7.010;2023-02-11T15:20:21;102822.34;;;9.80;nan
3082;BME280;1551;51.046;7.010;2023-02-11T15:23:21;102827.78;;;9.92;nan
3082;BME280;1551;51.046;7.010;2023-02-11T15:26:19;102828.63;;;9.91;nan
3082;BME280;1551;51.046;7.010;2023-02-11T15:29:15;102837.06;;;9.87;nan
3082;BME280;1551;51.046;7.010;2023-02-11T15:32:15;102838.53;;;9.79;nan
3082;BME280;1551;51.046;7.010;2023-02-11T15:35:09;102842.69;;;9.75;nan
3082;BME280;1551;51.046;7.010;2023-02-11T15:37:59;102851.28;;;9.77;nan
3082;BME280;1551;51.046;7.010;2023-02-11T15:40:57;102838.41;;;9.76;nan
3082;BME280;1551;51.046;7.010;2023-02-11T15:43:49;102853.06;;;9.80;nan
3082;BME280;1551;51.046;7.010;2023-02-11T15:46:41;102854.81;;;9.82;nan
3082;BME280;1551;51.046;7.010;2023-02-11T15:49:30;102852.31;;;9.84;nan
3082;BME280;1551;51.046;7.010;2023-02-11T15:52:24;102853.91;;;9.80;nan
3082;BME280;1551;51.046;7.010;2023-02-11T15:55:14;102855.59;;;9.80;nan
3082;BME280;1551;51.046;7.010;2023-02-11T15:58:04;102860.72;;;9.80;nan
3082;BME280;1551;51.046;7.010;2023-02-11T16:00:53;102856.44;;;9.80;nan
3082;BME280;1551;51.046;7.010;2023-02-11T16:03:49;102854.00;;;9.83;nan
3082;BME280;1551;51.046;7.010;2023-02-11T16:06:39;102852.44;;;9.88;nan
3082;BME280;1551;51.046;7.010;2023-02-11T16:09:33;102852.34;;;9.85;nan
3082;BME280;1551;51.046;7.010;2023-02-11T16:12:24;102852.41;;;9.87;nan
3082;BME280;1551;51.046;7.010;2023-02-11T16:15:37;102863.59;;;9.92;nan
3082;BME280;1551;51.046;7.010;2023-02-11T16:18:32;102866.09;;;9.89;nan
3082;BME280;1551;51.046;7.010;2023-02-11T16:21:31;102873.81;;;9.92;nan
3082;BME280;1551;51.046;7.010;2023-02-11T16:24:31;102857.19;;;9.76;nan
3082;BME280;1551;51.046;7.010;2023-02-11T16:27:23;102872.38;;;9.70;nan
3082;BME280;1551;51.046;7.010;2023-02-11T16:30:35;102866.25;;;9.65;nan
3082;BME280;1551;51.046;7.010;2023-02-11T16:33:28;102867.91;;;9.63;nan
3082;BME280;1551;51.046;7.010;2023-02-11T16:36:17;102869.69;;;9.65;nan
3082;BME280;1551;51.046;7.010;2023-02-11T16:39:07;102876.47;;;9.63;nan
3082;BME280;1551;51.046;7.010;2023-02-11T16:41:56;102880.44;;;9.54;nan
3082;BME280;1551;51.046;7.010;2023-02-11T16:44:46;102880.63;;;9.61;nan
3082;BME280;1551;51.046;7.010;2023-02-11T16:47:35;102882.47;;;9.65;nan
3082;BME280;1551;51.046;7.010;2023-02-11T16:50:28;102881.63;;;9.66;nan
3082;BME280;1551;51.046;7.010;2023-02-11T16:53:22;102896.03;;;9.63;nan
3082;BME280;1551;51.046;7.010;2023-02-11T16:56:14;102884.53;;;9.49;nan
3082;BME280;1551;51.046;7.010;2023-02-11T16:59:04;102892.16;;;9.47;nan
3082;BME280;1551;51.046;7.010;2023-02-11T17:01:53;102894.50;;;9.40;nan
3082;BME280;1551;51.046;7.010;2023-02-11T17:04:43;102887.38;;;9.30;nan
3082;BME280;1551;51.046;7.010;2023-02-11T17:07:32;102887.50;;;9.34;nan
3082;BME280;1551;51.046;7.010;2023-02-11T17:10:22;102878.66;;;9.23;nan
3082;BME280;1551;51.046;7.010;2023-02-11T17:13:11;102894.91;;;9.25;nan
3082;BME280;1551;51.046;7.010;2023-02-11T17:16:00;102890.66;;;9.26;nan
3082;BME280;1551;51.046;7.010;2023-02-11T17:18:49;102875.50;;;9.05;nan
3082;BME280;1551;51.046;7.010;2023-02-11T17:21:43;102900.56;;;9.17;nan
3082;BME280;1551;51.046;7.010;2023-02-11T17:24:32;102910.03;;;9.19;nan
3082;BME280;1551;51.046;7.010;2023-02-11T17:27:22;102907.53;;;9.21;nan
3082;BME280;1551;51.046;7.010;2023-02-11T17:30:12;102907.84;;;9.31;nan
3082;BME280;1551;51.046;7.010;2023-02-11T17:33:01;102907.13;;;9.35;nan
3082;BME280;1551;51.046;7.010;2023-02-11T17:35:50;102907.34;;;9.43;nan
3082;BME280;1551;51.046;7.010;2023-02-11T17:38:39;102921.03;;;9.45;nan
3082;BME280;1551;51.046;7.010;2023-02-11T17:41:29;102919.56;;;9.51;nan
3082;BME280;1551;51.046;7.010;2023-02-11T17:44:18;102912.91;;;9.56;nan
3082;BME280;1551;51.046;7.010;2023-02-11T17:47:07;102920.69;;;9.61;nan
3082;BME280;1551;51.046;7.010;2023-02-11T17:49:56;102923.16;;;9.58;nan
3082;BME280;1551;51.046;7.010;2023-02-11T17:52:45;102926.63;;;9.60;nan
3082;BME280;1551;51.046;7.010;2023-02-11T17:55:34;102923.75;;;9.49;nan